Time;durP1;ratioP1;P1;durP2;ratioP2;P2;SDS_P1;SDS_P2;PMS_P1;PMS_P2;Temp;Humidity;BMP_temperature;BMP_pressure;BME280_temperature;BME280_humidity;BME280_pressure;Samples;Min_cycle;Max_cycle;Signal;HPM_P1;HPM_P2
2021/11/03 00:01:26;;;;;;;;;;;2.20;99.90;;;;;;8359890;28;19999;-63
2021/11/03 00:05:27;;;;;;;;;;;2.20;99.90;;;;;;8360096;28;20277;-64
2021/11/03 00:09:27;;;;;;;;;;;2.00;99.90;;;;;;8359570;28;20365;-64
2021/11/03 00:13:29;;;;;;;;;;;2.00;99.90;;;;;;8341961;28;20007;-63
2021/11/03 00:17:30;;;;;;;;;;;2.10;99.90;;;;;;8341832;28;19905;-64
2021/11/03 00:21:30;;;;;;;;;;;1.80;99.90;;;;;;8359395;28;19935;-64
2021/11/03 00:25:31;;;;;;;;;;;1.70;99.90;;;;;;8365500;28;19905;-63
2021/11/03 00:29:32;;;;;;;;;;;1.70;99.90;;;;;;8365054;28;19905;-64
2021/11/03 00:33:32;;;;;;;;;;;1.50;99.90;;;;;;8365631;28;19905;-63
2021/11/03 00:37:33;;;;;;;;;;;1.50;99.90;;;;;;8347653;28;19905;-64
2021/11/03 00:41:33;;;;;;;;;;;1.40;99.90;;;;;;8365308;28;19908;-64
2021/11/03 00:45:34;;;;;;;;;;;1.40;99.90;;;;;;8365103;28;19943;-63
2021/11/03 00:49:34;;;;;;;;;;;1.70;99.90;;;;;;8347043;28;19905;-63
2021/11/03 00:53:35;;;;;;;;;;;1.80;99.90;;;;;;8364830;28;19905;-63
2021/11/03 00:57:35;;;;;;;;;;;1.70;99.90;;;;;;8364836;28;19908;-64
2021/11/03 01:01:36;;;;;;;;;;;1.40;99.90;;;;;;8364526;28;19919;-63
2021/11/03 01:05:40;;;;;;;;;;;1.30;99.90;;;;;;8364923;28;19912;-63
2021/11/03 01:09:40;;;;;;;;;;;1.40;99.90;;;;;;8364205;28;19911;-63
2021/11/03 01:13:41;;;;;;;;;;;1.40;99.90;;;;;;8346430;28;19905;-63
2021/11/03 01:17:41;;;;;;;;;;;1.60;99.90;;;;;;8364075;28;19908;-64
2021/11/03 01:21:42;;;;;;;;;;;1.60;99.90;;;;;;8363736;28;19917;-65
2021/11/03 01:25:43;;;;;;;;;;;1.70;99.90;;;;;;8364200;28;19909;-63
2021/11/03 01:29:43;;;;;;;;;;;1.70;99.90;;;;;;8345279;28;20439;-63
2021/11/03 01:33:43;;;;;;;;;;;1.60;99.90;;;;;;8363483;28;19908;-63
2021/11/03 01:37:44;;;;;;;;;;;1.80;99.90;;;;;;8345535;28;19905;-63
2021/11/03 01:41:45;;;;;;;;;;;2.10;99.90;;;;;;8361961;28;19909;-64
2021/11/03 01:45:45;;;;;;;;;;;1.70;99.90;;;;;;8363721;28;19940;-63
2021/11/03 01:49:46;;;;;;;;;;;1.70;99.90;;;;;;8363141;28;19905;-63
2021/11/03 01:53:46;;;;;;;;;;;1.60;99.90;;;;;;8363201;28;19950;-63
2021/11/03 01:57:49;;;;;;;;;;;1.90;99.90;;;;;;8362889;28;19909;-63
2021/11/03 02:01:50;;;;;;;;;;;1.80;99.90;;;;;;8344748;28;19955;-64
2021/11/03 02:05:55;;;;;;;;;;;1.90;99.90;;;;;;8363091;28;19904;-63
2021/11/03 02:09:55;;;;;;;;;;;2.10;99.90;;;;;;8362620;28;20439;-64
2021/11/03 02:13:57;;;;;;;;;;;2.40;99.90;;;;;;8362545;28;19916;-63
2021/11/03 02:17:58;;;;;;;;;;;2.50;99.90;;;;;;8362373;28;20360;-63
2021/11/03 02:22:25;;;;;;;;;;;2.60;99.90;;;;;;8344026;28;19923;-63
2021/11/03 02:26:28;;;;;;;;;;;2.60;99.90;;;;;;8346287;28;19967;-63
2021/11/03 02:30:28;;;;;;;;;;;2.60;99.90;;;;;;8361229;28;19935;-63
2021/11/03 02:34:30;;;;;;;;;;;2.40;99.90;;;;;;8361933;28;19905;-63
2021/11/03 02:38:32;;;;;;;;;;;2.30;99.90;;;;;;8361645;28;20432;-63
2021/11/03 02:42:34;;;;;;;;;;;2.50;99.90;;;;;;8361592;28;19931;-63
2021/11/03 02:46:35;;;;;;;;;;;2.40;99.90;;;;;;8360632;28;20357;-63
2021/11/03 02:50:36;;;;;;;;;;;2.60;99.90;;;;;;8361356;28;20004;-63
2021/11/03 02:54:36;;;;;;;;;;;2.50;99.90;;;;;;8361387;28;19909;-64
2021/11/03 02:58:37;;;;;;;;;;;2.40;99.90;;;;;;8360893;28;20373;-63
2021/11/03 03:02:38;;;;;;;;;;;2.50;99.90;;;;;;8359920;28;19915;-63
2021/11/03 03:06:38;;;;;;;;;;;2.60;99.90;;;;;;8361265;28;19911;-63
2021/11/03 03:10:39;;;;;;;;;;;2.60;99.90;;;;;;8360815;28;19905;-63
2021/11/03 03:14:41;;;;;;;;;;;2.40;99.90;;;;;;8360847;28;20357;-63
2021/11/03 03:18:41;;;;;;;;;;;2.50;99.90;;;;;;8360417;28;19905;-64
2021/11/03 03:22:42;;;;;;;;;;;2.50;99.90;;;;;;8364064;22;20312;-66
2021/11/03 03:26:43;;;;;;;;;;;2.50;99.90;;;;;;8326004;28;19909;-66
2021/11/03 03:30:44;;;;;;;;;;;2.50;99.90;;;;;;8327112;28;19913;-68
2021/11/03 03:34:44;;;;;;;;;;;2.40;99.90;;;;;;8327429;28;19905;-66
2021/11/03 03:38:45;;;;;;;;;;;2.70;99.90;;;;;;8326230;28;19905;-66
2021/11/03 03:42:46;;;;;;;;;;;2.50;99.90;;;;;;8325912;28;19957;-67
2021/11/03 03:46:46;;;;;;;;;;;2.50;99.90;;;;;;8327247;28;19915;-66
2021/11/03 03:50:47;;;;;;;;;;;2.50;99.90;;;;;;8327324;28;19966;-66
2021/11/03 03:54:47;;;;;;;;;;;2.60;99.90;;;;;;8327140;28;20130;-66
2021/11/03 03:58:48;;;;;;;;;;;2.50;99.90;;;;;;8331555;28;19912;-66
2021/11/03 04:02:52;;;;;;;;;;;2.60;99.90;;;;;;8333128;28;20435;-66
2021/11/03 04:06:52;;;;;;;;;;;2.50;99.90;;;;;;8333594;28;19911;-65
2021/11/03 04:10:53;;;;;;;;;;;2.30;99.90;;;;;;8333471;28;19909;-68
2021/11/03 04:14:53;;;;;;;;;;;2.20;99.90;;;;;;8333339;28;19956;-66
2021/11/03 04:18:54;;;;;;;;;;;2.20;99.90;;;;;;8313200;28;20144;-65
2021/11/03 04:22:54;;;;;;;;;;;2.00;99.90;;;;;;8331792;28;19913;-66
2021/11/03 04:26:55;;;;;;;;;;;2.00;99.90;;;;;;8332844;28;20365;-65
2021/11/03 04:30:55;;;;;;;;;;;2.00;99.90;;;;;;8332418;28;19912;-67
2021/11/03 04:34:56;;;;;;;;;;;1.90;99.90;;;;;;8331944;28;19909;-66
2021/11/03 04:38:57;;;;;;;;;;;1.70;99.90;;;;;;8330466;28;19972;-66
2021/11/03 04:42:57;;;;;;;;;;;1.50;99.90;;;;;;8327927;28;19924;-65
2021/11/03 04:46:58;;;;;;;;;;;1.70;99.90;;;;;;8332464;28;20317;-67
2021/11/03 04:50:58;;;;;;;;;;;1.70;99.90;;;;;;8345623;28;19944;-66
2021/11/03 04:54:59;;;;;;;;;;;1.60;99.90;;;;;;8337747;28;20288;-66
2021/11/03 04:58:59;;;;;;;;;;;1.50;99.90;;;;;;8331089;28;19909;-65
2021/11/03 05:03:00;;;;;;;;;;;1.60;99.90;;;;;;8314084;28;19999;-66
2021/11/03 05:07:00;;;;;;;;;;;1.60;99.90;;;;;;8330930;28;19912;-68
2021/11/03 05:11:01;;;;;;;;;;;1.60;99.90;;;;;;8330714;28;20369;-66
2021/11/03 05:15:01;;;;;;;;;;;1.60;99.90;;;;;;8331671;28;19905;-66
2021/11/03 05:19:03;;;;;;;;;;;1.60;99.90;;;;;;8331955;28;20292;-66
2021/11/03 05:23:03;;;;;;;;;;;1.50;99.90;;;;;;8313975;28;19917;-66
2021/11/03 05:27:04;;;;;;;;;;;1.30;99.90;;;;;;8329915;28;19915;-66
2021/11/03 05:31:05;;;;;;;;;;;1.50;99.90;;;;;;8331564;28;19905;-65
2021/11/03 05:35:06;;;;;;;;;;;1.70;99.90;;;;;;8331061;28;19958;-66
2021/11/03 05:39:08;;;;;;;;;;;1.60;99.90;;;;;;8330332;28;19917;-66
2021/11/03 05:43:08;;;;;;;;;;;1.60;99.90;;;;;;8330377;28;19951;-65
2021/11/03 05:47:10;;;;;;;;;;;1.60;99.90;;;;;;8329006;28;19905;-66
2021/11/03 05:51:11;;;;;;;;;;;1.40;99.90;;;;;;8329371;28;19905;-66
2021/11/03 05:55:11;;;;;;;;;;;1.20;99.90;;;;;;8327541;28;20296;-65
2021/11/03 05:59:12;;;;;;;;;;;1.20;99.90;;;;;;8329081;28;19909;-67
2021/11/03 06:03:14;;;;;;;;;;;1.20;99.90;;;;;;8329747;28;19913;-65
2021/11/03 06:07:15;;;;;;;;;;;1.20;99.90;;;;;;8329022;28;19909;-65
2021/11/03 06:11:16;;;;;;;;;;;1.30;99.90;;;;;;8329372;28;20251;-67
2021/11/03 06:15:18;;;;;;;;;;;1.20;99.90;;;;;;8327829;28;20376;-67
2021/11/03 06:19:18;;;;;;;;;;;1.10;99.90;;;;;;8310793;28;19909;-67
2021/11/03 06:23:19;;;;;;;;;;;1.00;99.90;;;;;;8328417;28;19965;-68
2021/11/03 06:27:19;;;;;;;;;;;1.10;99.90;;;;;;8328837;28;20358;-67
2021/11/03 06:31:20;;;;;;;;;;;1.20;99.90;;;;;;8311436;28;19920;-64
2021/11/03 06:35:21;;;;;;;;;;;1.20;99.90;;;;;;8322772;28;20400;-65
2021/11/03 06:39:22;;;;;;;;;;;1.20;99.90;;;;;;8331566;28;19916;-64
2021/11/03 06:43:23;;;;;;;;;;;1.10;99.90;;;;;;8324725;28;20582;-65
2021/11/03 06:47:23;;;;;;;;;;;1.10;99.90;;;;;;8330561;28;20289;-64
2021/11/03 06:51:24;;;;;;;;;;;1.30;99.90;;;;;;8328352;28;19909;-64
2021/11/03 06:55:25;;;;;;;;;;;1.20;99.90;;;;;;8314661;28;20380;-64
2021/11/03 06:59:25;;;;;;;;;;;1.40;99.90;;;;;;8331617;28;19951;-64
2021/11/03 07:03:26;;;;;;;;;;;1.40;99.90;;;;;;8331816;28;19913;-64
2021/11/03 07:07:27;;;;;;;;;;;1.50;99.90;;;;;;8331581;28;19928;-64
2021/11/03 07:11:28;;;;;;;;;;;1.50;99.90;;;;;;8332025;28;19905;-64
2021/11/03 07:15:29;;;;;;;;;;;1.50;99.90;;;;;;8332285;28;19904;-64
2021/11/03 07:19:29;;;;;;;;;;;1.50;99.90;;;;;;8327639;28;19909;-64
2021/11/03 07:23:30;;;;;;;;;;;1.80;99.90;;;;;;8330147;28;19920;-64
2021/11/03 07:27:31;;;;;;;;;;;1.90;99.90;;;;;;8331476;28;19905;-64
2021/11/03 07:31:31;;;;;;;;;;;2.20;99.90;;;;;;8331500;28;20357;-64
2021/11/03 07:35:32;;;;;;;;;;;2.50;99.90;;;;;;8331138;28;19912;-65
2021/11/03 07:39:32;;;;;;;;;;;2.90;99.90;;;;;;8331734;28;19909;-64
2021/11/03 07:43:34;;;;;;;;;;;3.30;99.90;;;;;;8312682;28;20296;-64
2021/11/03 07:47:35;;;;;;;;;;;3.70;99.90;;;;;;8330325;28;20377;-65
2021/11/03 07:51:35;;;;;;;;;;;3.90;99.90;;;;;;8329589;28;19905;-65
2021/11/03 07:55:36;;;;;;;;;;;4.10;99.90;;;;;;8330115;28;19920;-65
2021/11/03 07:59:37;;;;;;;;;;;4.10;99.90;;;;;;8330541;28;19915;-65
2021/11/03 08:03:37;;;;;;;;;;;4.20;99.90;;;;;;8328793;28;19913;-65
2021/11/03 08:07:38;;;;;;;;;;;4.30;99.90;;;;;;8328333;28;19909;-66
2021/11/03 08:11:50;;;;;;;;;;;4.50;99.90;;;;;;8327466;28;19909;-65
2021/11/03 08:15:51;;;;;;;;;;;4.50;99.90;;;;;;8329757;28;19909;-65
2021/11/03 08:19:53;;;;;;;;;;;4.70;99.90;;;;;;8327659;28;19913;-65
2021/11/03 08:23:54;;;;;;;;;;;4.80;99.90;;;;;;8327493;28;20412;-65
2021/11/03 08:27:54;;;;;;;;;;;5.00;99.90;;;;;;8328870;28;19955;-66
2021/11/03 08:31:56;;;;;;;;;;;5.30;99.90;;;;;;8327799;28;19920;-65
2021/11/03 08:35:57;;;;;;;;;;;5.30;99.90;;;;;;8328272;28;20289;-66
2021/11/03 08:39:59;;;;;;;;;;;5.30;99.90;;;;;;8327296;28;19908;-65
2021/11/03 08:43:59;;;;;;;;;;;5.30;99.90;;;;;;8328470;28;19913;-65
2021/11/03 08:48:00;;;;;;;;;;;5.50;99.90;;;;;;8332943;28;20405;-65
2021/11/03 08:52:01;;;;;;;;;;;5.90;99.90;;;;;;8333672;28;19909;-65
2021/11/03 08:56:01;;;;;;;;;;;6.10;99.90;;;;;;8329351;28;19909;-66
2021/11/03 09:00:06;;;;;;;;;;;6.40;99.90;;;;;;8331945;28;19913;-65
2021/11/03 09:04:07;;;;;;;;;;;6.60;99.90;;;;;;8333815;28;19959;-66
2021/11/03 09:08:09;;;;;;;;;;;6.70;99.90;;;;;;8333342;28;19948;-65
2021/11/03 09:12:09;;;;;;;;;;;6.50;99.90;;;;;;8333716;28;19974;-65
2021/11/03 09:16:10;;;;;;;;;;;6.30;99.90;;;;;;8333987;28;20442;-65
2021/11/03 09:20:12;;;;;;;;;;;6.40;99.90;;;;;;8333492;28;19963;-65
2021/11/03 09:24:12;;;;;;;;;;;6.30;99.90;;;;;;8366162;23;20404;-62
2021/11/03 09:28:13;;;;;;;;;;;6.40;99.90;;;;;;8383545;28;19919;-62
2021/11/03 09:32:15;;;;;;;;;;;6.30;99.90;;;;;;8402115;28;19915;-62
2021/11/03 09:36:17;;;;;;;;;;;6.20;99.90;;;;;;8413545;28;19998;-62
2021/11/03 09:40:25;;;;;;;;;;;5.70;99.90;;;;;;8428759;28;19908;-62
2021/11/03 09:44:27;;;;;;;;;;;5.80;99.90;;;;;;8426142;28;19919;-61
2021/11/03 09:48:34;;;;;;;;;;;5.70;99.90;;;;;;8406927;28;19909;-62
2021/11/03 09:52:37;;;;;;;;;;;5.70;99.90;;;;;;8411073;28;19912;-62
2021/11/03 09:56:43;;;;;;;;;;;6.50;99.90;;;;;;8412024;28;19911;-62
2021/11/03 10:00:47;;;;;;;;;;;7.30;99.90;;;;;;8412021;28;19908;-62
2021/11/03 10:04:50;;;;;;;;;;;7.70;99.90;;;;;;8413317;28;20334;-61
2021/11/03 10:08:51;;;;;;;;;;;7.00;99.90;;;;;;8414853;28;19916;-62
2021/11/03 10:12:52;;;;;;;;;;;7.60;99.90;;;;;;8429718;28;19904;-62
2021/11/03 10:16:54;;;;;;;;;;;7.90;99.90;;;;;;8426319;28;19904;-61
2021/11/03 10:21:13;;;;;;;;;;;6.90;99.90;;;;;;8427866;28;19912;-61
2021/11/03 10:25:21;;;;;;;;;;;6.60;99.90;;;;;;8428582;28;19995;-61
2021/11/03 10:29:30;;;;;;;;;;;6.20;99.90;;;;;;8424270;28;20284;-61
2021/11/03 10:33:41;;;;;;;;;;;6.00;99.90;;;;;;8402435;28;19914;-62
2021/11/03 10:37:44;;;;;;;;;;;5.80;99.90;;;;;;8395144;28;19904;-61
2021/11/03 10:41:52;;;;;;;;;;;6.20;99.90;;;;;;8393138;28;19908;-61
2021/11/03 10:46:02;;;;;;;;;;;6.20;99.90;;;;;;8420518;28;19915;-61
2021/11/03 10:50:15;;;;;;;;;;;6.00;99.90;;;;;;8427590;28;19964;-62
2021/11/03 10:54:19;;;;;;;;;;;5.80;99.90;;;;;;8409329;28;20002;-62
2021/11/03 10:58:33;;;;;;;;;;;5.80;99.90;;;;;;8426534;28;19915;-62
2021/11/03 11:02:42;;;;;;;;;;;5.90;99.90;;;;;;8400677;28;20372;-62
2021/11/03 11:06:50;;;;;;;;;;;6.00;99.90;;;;;;8425797;28;19908;-63
2021/11/03 11:10:58;;;;;;;;;;;5.90;99.90;;;;;;8416009;28;19908;-61
2021/11/03 11:15:01;;;;;;;;;;;6.10;99.90;;;;;;8406361;28;19908;-61
2021/11/03 11:19:02;;;;;;;;;;;6.50;99.90;;;;;;8411031;28;19908;-61
2021/11/03 11:23:03;;;;;;;;;;;6.50;99.90;;;;;;8413575;28;19919;-62
2021/11/03 11:27:19;;;;;;;;;;;7.30;99.90;;;;;;8420704;28;19904;-62
2021/11/03 11:31:38;;;;;;;;;;;9.30;99.90;;;;;;8405269;28;20271;-60
2021/11/03 11:35:46;;;;;;;;;;;10.90;99.90;;;;;;8426886;28;19904;-62
2021/11/03 11:39:48;;;;;;;;;;;11.40;99.90;;;;;;8417303;28;19908;-62
2021/11/03 11:43:50;;;;;;;;;;;10.20;99.90;;;;;;8399375;28;19912;-62
2021/11/03 11:47:52;;;;;;;;;;;9.00;99.90;;;;;;8417717;28;19908;-62
2021/11/03 11:51:55;;;;;;;;;;;8.50;99.90;;;;;;8424816;28;20364;-61
2021/11/03 11:56:05;;;;;;;;;;;8.10;99.90;;;;;;8426297;28;19904;-62
2021/11/03 12:00:09;;;;;;;;;;;7.50;99.90;;;;;;8410476;28;19904;-59
2021/11/03 12:04:09;;;;;;;;;;;7.50;99.90;;;;;;8395805;28;19923;-61
2021/11/03 12:08:10;;;;;;;;;;;7.50;99.90;;;;;;8407382;28;19908;-62
2021/11/03 12:12:11;;;;;;;;;;;7.50;99.90;;;;;;8398693;28;20261;-68
2021/11/03 12:16:14;;;;;;;;;;;7.80;99.90;;;;;;8407441;28;19995;-67
2021/11/03 12:20:24;;;;;;;;;;;7.80;99.90;;;;;;8407691;28;19912;-61
2021/11/03 12:24:29;;;;;;;;;;;7.70;99.90;;;;;;8414823;28;19915;-62
2021/11/03 12:28:53;;;;;;;;;;;7.70;99.90;;;;;;8414910;28;19904;-61
2021/11/03 12:32:56;;;;;;;;;;;7.70;99.90;;;;;;8409196;28;19904;-62
2021/11/03 12:36:57;;;;;;;;;;;7.50;99.90;;;;;;8416856;28;19973;-61
2021/11/03 12:40:57;;;;;;;;;;;7.30;99.90;;;;;;8400359;28;20299;-61
2021/11/03 12:45:11;;;;;;;;;;;7.30;99.90;;;;;;8418953;28;19908;-61
2021/11/03 12:49:13;;;;;;;;;;;7.40;99.90;;;;;;8418357;28;20383;-61
2021/11/03 12:53:31;;;;;;;;;;;7.30;99.90;;;;;;8405989;28;19908;-61
2021/11/03 12:57:31;;;;;;;;;;;7.40;99.90;;;;;;8420625;28;19962;-60
2021/11/03 13:01:43;;;;;;;;;;;7.50;99.90;;;;;;8406755;28;20364;-61
2021/11/03 13:05:45;;;;;;;;;;;7.50;99.90;;;;;;8431116;28;19904;-61
2021/11/03 13:09:56;;;;;;;;;;;7.50;99.90;;;;;;8426578;28;20288;-61
2021/11/03 13:13:59;;;;;;;;;;;7.70;99.90;;;;;;8404456;28;20007;-61
2021/11/03 13:18:12;;;;;;;;;;;7.50;99.90;;;;;;8405998;28;20371;-62
2021/11/03 13:22:15;;;;;;;;;;;7.70;99.90;;;;;;8412487;28;19948;-60
2021/11/03 13:26:24;;;;;;;;;;;7.70;99.90;;;;;;8403375;28;19915;-61
2021/11/03 13:30:28;;;;;;;;;;;7.70;99.90;;;;;;8411890;28;19959;-62
2021/11/03 13:34:28;;;;;;;;;;;7.90;99.90;;;;;;8396429;28;20276;-62
2021/11/03 13:38:30;;;;;;;;;;;8.00;99.90;;;;;;8396378;28;20148;-62
2021/11/03 13:42:38;;;;;;;;;;;8.00;99.90;;;;;;8425377;28;20376;-61
2021/11/03 13:46:39;;;;;;;;;;;8.30;99.90;;;;;;8430356;28;20287;-61
2021/11/03 13:50:49;;;;;;;;;;;8.10;99.90;;;;;;8425953;28;19915;-62
2021/11/03 13:54:52;;;;;;;;;;;8.10;99.90;;;;;;8428717;28;19908;-62
2021/11/03 13:58:58;;;;;;;;;;;8.00;99.90;;;;;;8407904;28;20408;-62
2021/11/03 14:02:59;;;;;;;;;;;8.20;99.90;;;;;;8401349;28;19912;-62
2021/11/03 14:07:02;;;;;;;;;;;8.30;99.90;;;;;;8416468;28;19914;-62
2021/11/03 14:11:03;;;;;;;;;;;8.40;99.90;;;;;;8402286;28;20327;-62
2021/11/03 14:15:03;;;;;;;;;;;8.50;99.90;;;;;;8397885;28;19912;-62
2021/11/03 14:19:07;;;;;;;;;;;8.60;99.90;;;;;;8423949;28;19911;-62
2021/11/03 14:23:12;;;;;;;;;;;8.70;99.90;;;;;;8402178;28;19920;-62
2021/11/03 14:27:13;;;;;;;;;;;8.80;99.90;;;;;;8406976;28;19912;-61
2021/11/03 14:31:22;;;;;;;;;;;8.90;99.90;;;;;;8399977;28;19912;-62
2021/11/03 14:35:24;;;;;;;;;;;8.80;99.90;;;;;;8402565;28;19912;-62
2021/11/03 14:39:30;;;;;;;;;;;8.80;99.90;;;;;;8397959;28;19955;-62
2021/11/03 14:43:32;;;;;;;;;;;8.80;99.90;;;;;;8390673;28;19916;-63
2021/11/03 14:47:33;;;;;;;;;;;8.80;99.90;;;;;;8394513;28;20121;-62
2021/11/03 14:51:33;;;;;;;;;;;8.80;99.90;;;;;;8407532;28;19959;-62
2021/11/03 14:55:36;;;;;;;;;;;8.80;99.90;;;;;;8423589;28;19923;-62
2021/11/03 14:59:37;;;;;;;;;;;8.90;99.90;;;;;;8392806;28;20290;-62
2021/11/03 15:03:40;;;;;;;;;;;8.80;99.90;;;;;;8393000;28;19908;-62
2021/11/03 15:07:41;;;;;;;;;;;8.70;99.90;;;;;;8402717;28;19908;-62
2021/11/03 15:11:41;;;;;;;;;;;8.70;99.90;;;;;;8391333;28;19999;-62
2021/11/03 15:15:42;;;;;;;;;;;8.60;99.90;;;;;;8408993;28;19934;-64
2021/11/03 15:20:09;;;;;;;;;;;8.50;99.90;;;;;;8397101;28;19912;-62
2021/11/03 15:24:10;;;;;;;;;;;8.40;99.90;;;;;;8403980;28;20414;-63
2021/11/03 15:28:11;;;;;;;;;;;8.40;99.90;;;;;;8409166;22;19944;-64
2021/11/03 15:32:23;;;;;;;;;;;8.20;99.90;;;;;;8362672;28;19919;-64
2021/11/03 15:36:23;;;;;;;;;;;8.30;99.90;;;;;;8362843;28;19994;-63
2021/11/03 15:40:28;;;;;;;;;;;8.10;99.90;;;;;;8361780;28;19921;-63
2021/11/03 15:44:29;;;;;;;;;;;8.10;99.90;;;;;;8339925;28;19924;-64
2021/11/03 15:48:32;;;;;;;;;;;8.00;99.90;;;;;;8347182;28;20269;-63
2021/11/03 15:52:32;;;;;;;;;;;7.90;99.90;;;;;;8321634;28;19913;-63
2021/11/03 15:56:33;;;;;;;;;;;7.80;99.90;;;;;;8339985;28;19909;-64
2021/11/03 16:00:35;;;;;;;;;;;7.80;99.90;;;;;;8337579;28;19967;-64
2021/11/03 16:04:39;;;;;;;;;;;7.70;99.90;;;;;;8338170;28;19916;-63
2021/11/03 16:08:40;;;;;;;;;;;7.60;99.90;;;;;;8338206;28;19909;-64
2021/11/03 16:12:41;;;;;;;;;;;7.50;99.90;;;;;;8351114;28;19919;-63
2021/11/03 16:16:41;;;;;;;;;;;7.60;99.90;;;;;;8366788;28;20319;-64
2021/11/03 16:20:42;;;;;;;;;;;7.50;99.90;;;;;;8363928;28;20372;-64
2021/11/03 16:24:43;;;;;;;;;;;7.40;99.90;;;;;;8358301;28;19916;-63
2021/11/03 16:28:44;;;;;;;;;;;7.30;99.90;;;;;;8365409;28;20054;-64
2021/11/03 16:32:44;;;;;;;;;;;7.40;99.90;;;;;;8359826;28;19913;-64
2021/11/03 16:36:46;;;;;;;;;;;7.40;99.90;;;;;;8332624;28;20289;-63
2021/11/03 16:40:49;;;;;;;;;;;7.50;99.90;;;;;;8336892;28;19909;-64
2021/11/03 16:44:52;;;;;;;;;;;7.40;99.90;;;;;;8350004;28;19913;-64
2021/11/03 16:48:53;;;;;;;;;;;7.30;99.90;;;;;;8365205;28;20392;-63
2021/11/03 16:52:54;;;;;;;;;;;7.30;99.90;;;;;;8368008;28;20055;-62
2021/11/03 16:56:56;;;;;;;;;;;7.20;99.90;;;;;;8372626;28;19921;-65
2021/11/03 17:00:58;;;;;;;;;;;7.10;99.90;;;;;;8362078;28;19940;-64
2021/11/03 17:04:59;;;;;;;;;;;7.10;99.90;;;;;;8359805;28;19919;-63
2021/11/03 17:09:04;;;;;;;;;;;7.00;99.90;;;;;;8357759;28;19916;-63
2021/11/03 17:13:05;;;;;;;;;;;7.10;99.90;;;;;;8352624;28;19941;-63
2021/11/03 17:17:06;;;;;;;;;;;7.00;99.90;;;;;;8354456;28;19913;-64
2021/11/03 17:21:07;;;;;;;;;;;7.00;99.90;;;;;;8329807;28;19995;-62
2021/11/03 17:25:08;;;;;;;;;;;7.00;99.90;;;;;;8345109;28;19913;-63
2021/11/03 17:29:15;;;;;;;;;;;7.00;99.90;;;;;;8356933;28;20380;-64
2021/11/03 17:33:17;;;;;;;;;;;6.90;99.90;;;;;;8358944;28;20364;-64
2021/11/03 17:37:17;;;;;;;;;;;6.90;99.90;;;;;;8345990;28;20396;-63
2021/11/03 17:41:24;;;;;;;;;;;6.90;99.90;;;;;;8347129;28;20033;-64
2021/11/03 17:45:32;;;;;;;;;;;6.90;99.90;;;;;;8355301;28;19962;-63
2021/11/03 17:49:41;;;;;;;;;;;6.80;99.90;;;;;;8345143;28;20287;-64
2021/11/03 17:53:42;;;;;;;;;;;6.80;99.90;;;;;;8344484;28;19925;-63
2021/11/03 17:57:46;;;;;;;;;;;6.80;99.90;;;;;;8341198;28;19917;-64
2021/11/03 18:01:51;;;;;;;;;;;6.80;99.90;;;;;;8339989;28;19968;-63
2021/11/03 18:05:52;;;;;;;;;;;6.80;99.90;;;;;;8360112;28;20275;-65
2021/11/03 18:09:52;;;;;;;;;;;6.80;99.90;;;;;;8342113;28;20307;-64
2021/11/03 18:13:56;;;;;;;;;;;6.70;99.90;;;;;;8332574;28;19913;-64
2021/11/03 18:17:57;;;;;;;;;;;6.90;99.90;;;;;;8337494;28;19955;-64
2021/11/03 18:21:57;;;;;;;;;;;6.80;99.90;;;;;;8334199;28;20328;-64
2021/11/03 18:26:10;;;;;;;;;;;6.90;99.90;;;;;;8324746;28;19927;-64
2021/11/03 18:30:11;;;;;;;;;;;6.90;99.90;;;;;;8353327;28;19958;-64
2021/11/03 18:34:11;;;;;;;;;;;6.80;99.90;;;;;;8332697;28;19920;-64
2021/11/03 18:38:12;;;;;;;;;;;6.80;99.90;;;;;;8336626;28;20376;-64
2021/11/03 18:42:21;;;;;;;;;;;7.00;99.90;;;;;;8349260;28;19962;-64
2021/11/03 18:46:22;;;;;;;;;;;6.90;99.90;;;;;;8348668;28;19909;-63
2021/11/03 18:50:25;;;;;;;;;;;6.70;99.90;;;;;;8348593;28;19909;-62
2021/11/03 18:54:30;;;;;;;;;;;6.70;99.90;;;;;;8345285;28;19967;-63
2021/11/03 18:58:34;;;;;;;;;;;6.80;99.90;;;;;;8339870;28;19912;-63
2021/11/03 19:02:35;;;;;;;;;;;6.70;99.90;;;;;;8340192;28;19916;-65
2021/11/03 19:06:38;;;;;;;;;;;6.60;99.90;;;;;;8331863;28;19920;-64
2021/11/03 19:10:39;;;;;;;;;;;6.80;99.90;;;;;;8336944;28;19963;-64
2021/11/03 19:14:39;;;;;;;;;;;6.60;99.90;;;;;;8336831;28;20343;-63
2021/11/03 19:18:40;;;;;;;;;;;6.60;99.90;;;;;;8343425;28;19915;-63
2021/11/03 19:22:42;;;;;;;;;;;6.50;99.90;;;;;;8339944;28;19916;-64
2021/11/03 19:26:43;;;;;;;;;;;6.40;99.90;;;;;;8346169;28;20330;-64
2021/11/03 19:30:43;;;;;;;;;;;6.40;99.90;;;;;;8355198;28;19913;-64
2021/11/03 19:34:44;;;;;;;;;;;6.40;99.90;;;;;;8329587;28;20407;-65
2021/11/03 19:38:45;;;;;;;;;;;6.30;99.90;;;;;;8322455;28;20438;-64
2021/11/03 19:42:46;;;;;;;;;;;6.30;99.90;;;;;;8324444;28;19919;-64
2021/11/03 19:46:48;;;;;;;;;;;6.40;99.90;;;;;;8329835;28;20274;-65
2021/11/03 19:50:50;;;;;;;;;;;6.40;99.90;;;;;;8341913;28;19965;-65
2021/11/03 19:54:51;;;;;;;;;;;6.50;99.90;;;;;;8339284;28;20242;-65
2021/11/03 19:58:52;;;;;;;;;;;6.40;99.90;;;;;;8330448;28;19908;-65
2021/11/03 20:02:54;;;;;;;;;;;6.30;99.90;;;;;;8345341;28;20419;-65
2021/11/03 20:06:58;;;;;;;;;;;6.40;99.90;;;;;;8351867;28;21307;-64
2021/11/03 20:11:03;;;;;;;;;;;6.40;99.90;;;;;;8333514;28;19992;-65
2021/11/03 20:15:05;;;;;;;;;;;6.40;99.90;;;;;;8327573;28;19950;-64
2021/11/03 20:19:17;;;;;;;;;;;6.30;99.90;;;;;;8347526;28;19920;-64
2021/11/03 20:23:18;;;;;;;;;;;6.50;99.90;;;;;;8346975;28;19920;-65
2021/11/03 20:27:21;;;;;;;;;;;6.70;99.90;;;;;;8352845;28;20001;-64
2021/11/03 20:31:23;;;;;;;;;;;6.60;99.90;;;;;;8335856;28;20400;-65
2021/11/03 20:35:32;;;;;;;;;;;6.50;99.90;;;;;;8340510;28;19954;-65
2021/11/03 20:39:34;;;;;;;;;;;6.60;99.90;;;;;;8343425;28;19916;-64
2021/11/03 20:43:34;;;;;;;;;;;6.60;99.90;;;;;;8351025;28;19913;-65
2021/11/03 20:47:36;;;;;;;;;;;6.70;99.90;;;;;;8347280;28;19909;-64
2021/11/03 20:51:40;;;;;;;;;;;6.80;99.90;;;;;;8341827;28;19962;-65
2021/11/03 20:55:41;;;;;;;;;;;6.70;99.90;;;;;;8354743;28;20270;-65
2021/11/03 20:59:41;;;;;;;;;;;6.80;99.90;;;;;;8354688;28;19912;-65
2021/11/03 21:03:42;;;;;;;;;;;6.70;99.90;;;;;;8339427;28;19917;-65
2021/11/03 21:07:43;;;;;;;;;;;6.60;99.90;;;;;;8328402;28;20312;-65
2021/11/03 21:11:45;;;;;;;;;;;6.60;99.90;;;;;;8347796;28;19962;-64
2021/11/03 21:15:46;;;;;;;;;;;6.60;99.90;;;;;;8355762;28;19909;-65
2021/11/03 21:19:47;;;;;;;;;;;6.50;99.90;;;;;;8351251;28;19904;-65
2021/11/03 21:23:48;;;;;;;;;;;6.60;99.90;;;;;;8364136;28;19992;-65
2021/11/03 21:27:49;;;;;;;;;;;6.60;99.90;;;;;;8389844;22;19925;-62
2021/11/03 21:31:49;;;;;;;;;;;6.60;99.90;;;;;;8361307;28;19958;-62
2021/11/03 21:35:51;;;;;;;;;;;6.50;99.90;;;;;;8363980;28;20333;-62
2021/11/03 21:39:52;;;;;;;;;;;6.60;99.90;;;;;;8363484;28;19955;-62
2021/11/03 21:43:52;;;;;;;;;;;6.60;99.90;;;;;;8363633;28;19912;-62
2021/11/03 21:47:57;;;;;;;;;;;6.50;99.90;;;;;;8364112;28;19912;-62
2021/11/03 21:51:58;;;;;;;;;;;6.60;99.90;;;;;;8362874;28;19978;-62
2021/11/03 21:55:59;;;;;;;;;;;6.60;99.90;;;;;;8363304;28;19905;-61
2021/11/03 22:00:00;;;;;;;;;;;6.60;99.90;;;;;;8345229;28;19950;-63
2021/11/03 22:04:00;;;;;;;;;;;6.50;99.90;;;;;;8363021;28;19915;-62
2021/11/03 22:08:01;;;;;;;;;;;6.60;99.90;;;;;;8363232;28;19909;-61
2021/11/03 22:12:02;;;;;;;;;;;6.50;99.90;;;;;;8362877;28;20017;-62
2021/11/03 22:16:03;;;;;;;;;;;6.40;99.90;;;;;;8362893;28;19916;-62
2021/11/03 22:20:04;;;;;;;;;;;6.50;99.90;;;;;;8362183;28;20295;-62
2021/11/03 22:24:05;;;;;;;;;;;6.50;99.90;;;;;;8362374;28;19966;-61
2021/11/03 22:28:05;;;;;;;;;;;6.50;99.90;;;;;;8344315;28;20346;-61
2021/11/03 22:32:06;;;;;;;;;;;6.40;99.90;;;;;;8362115;28;20011;-62
2021/11/03 22:36:06;;;;;;;;;;;6.40;99.90;;;;;;8362119;28;19959;-62
2021/11/03 22:40:10;;;;;;;;;;;6.40;99.90;;;;;;8361635;28;20007;-62
2021/11/03 22:44:10;;;;;;;;;;;6.40;99.90;;;;;;8361827;28;19915;-62
2021/11/03 22:48:11;;;;;;;;;;;6.30;99.90;;;;;;8362093;28;19905;-62
2021/11/03 22:52:11;;;;;;;;;;;6.40;99.90;;;;;;8343338;28;19909;-61
2021/11/03 22:56:12;;;;;;;;;;;6.40;99.90;;;;;;8360230;28;20298;-62
2021/11/03 23:00:14;;;;;;;;;;;6.50;99.90;;;;;;8359677;28;20015;-62
2021/11/03 23:04:15;;;;;;;;;;;6.40;99.90;;;;;;8359159;28;19913;-61
2021/11/03 23:08:16;;;;;;;;;;;6.40;99.90;;;;;;8359980;28;19963;-61
2021/11/03 23:12:19;;;;;;;;;;;6.30;99.90;;;;;;8361160;28;19905;-62
2021/11/03 23:16:20;;;;;;;;;;;6.20;99.90;;;;;;8361072;28;19990;-62
2021/11/03 23:20:20;;;;;;;;;;;6.30;99.90;;;;;;8360499;28;19966;-62
2021/11/03 23:24:20;;;;;;;;;;;6.30;99.90;;;;;;8342723;28;19908;-61
2021/11/03 23:28:21;;;;;;;;;;;6.20;99.90;;;;;;8360421;28;19913;-62
2021/11/03 23:32:22;;;;;;;;;;;6.30;99.90;;;;;;8360461;28;20339;-62
2021/11/03 23:36:22;;;;;;;;;;;6.20;99.90;;;;;;8360496;28;19905;-62
2021/11/03 23:40:23;;;;;;;;;;;6.20;99.90;;;;;;8360411;28;19987;-62
2021/11/03 23:44:24;;;;;;;;;;;6.20;99.90;;;;;;8360356;28;19909;-62
2021/11/03 23:48:24;;;;;;;;;;;6.10;99.90;;;;;;8342231;28;19928;-63
2021/11/03 23:52:25;;;;;;;;;;;6.00;99.90;;;;;;8360472;28;19908;-62